Flight Track Log - Related Links

Times and Time Zones

All times are in EDT time to prevent confusion due to time zone crossing. See the AFR3552 flight status page for this flight to view local times or setup timezone preferences in your user account.

Time Position Orientation Groundspeed Altitude Reporting Facility
EDT Latitude Longitude Course Direction KTS MPH feet Rate Location/Type
Fri 08:25:08 AM 48.7250 2.3570 255° West 11 13  Level FlightAware ADS-B
Fri 08:25:25 AM 48.7240 2.3560 213° Southwest 9 10 226 Level FlightAware ADS-B
Fri 08:26:59 AM 48.7200 2.3590 154° Southeast 16 18 249 Level FlightAware ADS-B
Fri 08:27:29 AM 48.7200 2.3630 90° East 57 66 560 Level FlightAware ADS-B
Fri 08:27:44 AM 48.7210 2.3690 76° East 105 121 933 Level FlightAware ADS-B
Fri 08:28:14 AM 48.7280 2.4080 75° East 181 208 700 2,077 Climbing FlightAware ADS-B
Fri 08:28:36 AM 48.7330 2.4340 74° East 182 209 1,800 2,038 Climbing FlightAware ADS-B
Fri 08:29:07 AM 48.7370 2.4600 77° East 183 211 2,500 1,742 Climbing FlightAware ADS-B
Fri 08:29:38 AM 48.7390 2.5040 86° East 189 217 3,600 1,839 Climbing FlightAware ADS-B
Fri 08:30:09 AM 48.7430 2.5710 85° East 240 276 4,400 1,644 Climbing FlightAware ADS-B
Fri 08:30:51 AM 48.7130 2.6230 131° Southeast 275 316 5,600 2,029 Climbing FlightAware ADS-B
Fri 08:31:17 AM 48.6810 2.6150 189° South 287 330 6,700 2,368 Climbing FlightAware ADS-B
Fri 08:31:29 AM 48.6670 2.5980 219° Southwest 295 339 7,100 2,100 Climbing FlightAware ADS-B
Fri 08:31:57 AM 48.6580 2.5430 256° West 304 350 8,100 2,100 Climbing FlightAware ADS-B
Fri 08:32:09 AM 48.6580 2.5190 270° West 308 354 8,500 2,308 Climbing FlightAware ADS-B
Fri 08:32:36 AM 48.6580 2.4670 270° West 307 353 9,600 1,867 Climbing FlightAware ADS-B
Fri 08:33:39 AM 48.6570 2.3350 269° West 350 403 11,300 1,541 Climbing FlightAware ADS-B
Fri 08:34:25 AM 48.6560 2.1910 269° West 401 461 12,400 1,933 Climbing FlightAware ADS-B
Fri 08:35:09 AM 48.6550 2.0630 269° West 416 479 14,200 2,400 Climbing FlightAware ADS-B
Fri 08:35:50 AM 48.6670 1.9480 279° West 420 483 15,800 2,053 Climbing FlightAware ADS-B
Fri 08:36:25 AM 48.6834 1.8436 279° West 414 476 16,800 1,227 Climbing FlightAware UK
Fri 08:36:34 AM 48.6830 1.8510 279° West 436 502 16,700 2,429 Descending FlightAware ADS-B
Fri 08:37:07 AM 48.7048 1.7214 279° West 420 483 18,500 3,077 Climbing FlightAware UK
Fri 08:37:13 AM 48.7060 1.7040 279° West 445 512 18,700 2,040 Climbing FlightAware ADS-B
Fri 08:37:57 AM 48.7280 1.5700 284° West 454 522 20,200 1,948 Climbing FlightAware ADS-B
Fri 08:38:30 AM 48.7440 1.4670 283° West 465 535 21,200 1,440 Climbing FlightAware ADS-B
Fri 08:39:12 AM 48.7600 1.3350 280° West 468 539 22,000 1,412 Climbing FlightAware ADS-B
Fri 08:39:55 AM 48.7690 1.1900 275° West 471 542 23,200 1,462 Climbing FlightAware ADS-B
Fri 08:40:30 AM 48.7740 1.1030 275° West 476 548 23,900 1,373 Climbing FlightAware ADS-B
Fri 08:41:18 AM 48.7830 0.9540 275° West 485 558 25,100 1,753 Climbing FlightAware ADS-B
Fri 08:41:59 AM 48.7940 0.7740 275° West 493 567 26,500 1,953 Climbing FlightAware ADS-B
Fri 08:42:01 AM 48.7942 0.7666 275° West 472 543 26,500 1,125 Level FlightAware UK
Fri 08:42:31 AM 48.7992 0.6616 275° West 478 550 27,100 1,421 Climbing FlightAware UK
Fri 08:42:39 AM 48.7990 0.6350 275° West 502 578 27,400 1,660 Climbing FlightAware ADS-B
Fri 08:43:18 AM 48.7957 0.4927 275° West 490 564 28,400 1,385 Climbing FlightAware UK
Fri 08:43:18 AM 48.7970 0.5120 275° West 506 582 28,300 1,600 Descending FlightAware ADS-B
Fri 08:43:48 AM 48.7903 0.3869 275° West 492 566 29,200 1,610 Climbing FlightAware UK
Fri 08:43:59 AM 48.7890 0.3530 275° West 511 588 29,400 964 Climbing FlightAware ADS-B
Fri 08:44:44 AM 48.7810 0.2220 265° West 519 597 30,100 1,244 Climbing FlightAware ADS-B
Fri 08:45:21 AM 48.7740 0.1010 265° West 516 594 31,100 1,373 Climbing FlightAware ADS-B
Fri 08:46:07 AM 48.7610 -0.1070 265° West 514 592 32,000 621 Climbing FlightAware ADS-B
Fri 08:46:48 AM 48.7513 -0.2562 265° West 490 564 32,000  Level FlightAware UK
Fri 08:47:03 AM 48.7490 -0.3050 265° West 515 593 32,000  Level FlightAware ADS-B
Fri 08:47:41 AM 48.7400 -0.4420 264° West 515 593 32,000  Level FlightAware ADS-B
Fri 08:48:20 AM 48.7310 -0.5800 264° West 514 592 32,000  Level FlightAware ADS-B
Fri 08:49:10 AM 48.7210 -0.7280 264° West 514 592 32,000  Level FlightAware ADS-B
Fri 08:49:48 AM 48.7100 -0.8930 264° West 513 590 32,000  Level FlightAware ADS-B
Fri 08:50:28 AM 48.7000 -1.0380 264° West 512 589 32,000  Level FlightAware ADS-B
Fri 08:51:13 AM 48.6890 -1.1880 264° West 511 588 32,000  Level FlightAware ADS-B
Fri 08:51:47 AM 48.6785 -1.3242 264° West 492 566 32,000  Level FlightAware UK
Fri 08:51:48 AM 48.6810 -1.3100 264° West 509 586 32,000  Level FlightAware ADS-B
Fri 08:52:28 AM 48.6710 -1.4410 263° West 510 587 32,000  Level FlightAware ADS-B
Fri 08:53:08 AM 48.6620 -1.5560 263° West 510 587 32,000  Level FlightAware ADS-B
Fri 08:53:48 AM 48.6480 -1.7440 264° West 512 589 32,000  Level FlightAware ADS-B
Fri 08:54:31 AM 48.6380 -1.9010 265° West 512 589 32,000  Level FlightAware ADS-B
Fri 08:55:05 AM 48.6293 -2.0235 265° West 490 564 32,000  Level FlightAware UK
Fri 08:55:11 AM 48.6290 -2.0450 265° West 512 589 32,000  Level FlightAware ADS-B
Fri 08:55:55 AM 48.6200 -2.1960 265° West 510 587 32,000  Level FlightAware ADS-B
Fri 08:56:34 AM 48.6120 -2.3200 264° West 510 587 32,000  Level FlightAware ADS-B
Fri 08:57:32 AM 48.5960 -2.5420 264° West 509 586 32,000  Level FlightAware ADS-B
Fri 08:58:15 AM 48.5860 -2.6950 264° West 509 586 32,000  Level FlightAware ADS-B
Fri 08:58:55 AM 48.5760 -2.8390 264° West 509 586 32,000  Level FlightAware ADS-B
Fri 08:59:32 AM 48.5670 -2.9630 264° West 506 582 32,000  Level FlightAware ADS-B
Fri 09:00:13 AM 48.5560 -3.1120 264° West 508 585 32,000  Level FlightAware ADS-B
Fri 09:00:53 AM 48.5460 -3.2510 264° West 509 586 32,000  Level FlightAware ADS-B
Fri 09:01:34 AM 48.5344 -3.3968 264° West 492 566 32,000  Level FlightAware UK
Fri 09:01:37 AM 48.5340 -3.4060 264° West 510 587 32,000  Level FlightAware ADS-B
Fri 09:02:21 AM 48.5220 -3.5610 263° West 509 586 32,000  Level FlightAware ADS-B
Fri 09:02:54 AM 48.5170 -3.6320 264° West 509 586 32,000  Level FlightAware ADS-B
Fri 09:04:12 AM 48.4950 -3.9050 263° West 507 583 32,000  Level FlightAware ADS-B
Fri 09:04:45 AM 48.4830 -4.0540 263° West 505 581 32,000  Level FlightAware ADS-B
Fri 09:05:30 AM 48.4700 -4.2090 263° West 505 581 32,000  Level FlightAware ADS-B
Fri 09:06:10 AM 48.4580 -4.3610 263° West 506 582 32,000  Level FlightAware ADS-B
Fri 09:06:51 AM 48.4490 -4.4640 263° West 506 582 32,000  Level FlightAware ADS-B
Fri 09:06:57 AM 48.4431 -4.5305 263° West 490 564 32,000  Level FlightAware UK
Fri 09:07:27 AM 48.4339 -4.6348 263° West 488 562 32,000  Level FlightAware UK
Fri 09:07:57 AM 48.4260 -4.7240 263° West 509 586 32,000  Level FlightAware ADS-B
Fri 09:08:38 AM 48.4120 -4.8820 262° West 508 585 32,000  Level FlightAware ADS-B
Fri 09:09:20 AM 48.4000 -5.0270 263° West 508 585 32,000  Level FlightAware ADS-B
Fri 09:10:00 AM 48.3870 -5.1670 262° West 508 585 32,000  Level FlightAware ADS-B
Fri 09:10:39 AM 48.3760 -5.2790 262° West 507 583 32,000  Level FlightAware ADS-B
Fri 09:11:15 AM 48.3624 -5.4308 262° West 492 566 32,000  Level FlightAware UK
Fri 09:11:31 AM 48.3650 -5.4020 262° West 507 583 32,000  Level FlightAware ADS-B
Fri 09:12:15 AM 48.3440 -5.6250 262° West 506 582 32,000  Level FlightAware ADS-B
Fri 09:12:53 AM 48.3320 -5.7460 262° West 504 580 32,000  Level FlightAware ADS-B
Fri 09:12:57 AM 48.3286 -5.7846 262° West 490 564 32,000  Level FlightAware UK
Fri 09:13:33 AM 48.3167 -5.9083 262° West 492 566 32,000  Level FlightAware UK
Fri 09:13:39 AM 48.3150 -5.9190 262° West 503 579 32,000  Level FlightAware ADS-B
Fri 09:14:18 AM 48.3010 -6.0630 262° West 503 579 32,000  Level FlightAware ADS-B
Fri 09:14:57 AM 48.2920 -6.1500 261° West 503 579 32,000  Level FlightAware ADS-B
Fri 09:15:45 AM 48.2698 -6.3617 261° West 492 566 32,000  Level FlightAware UK
Fri 09:15:45 AM 48.2760 -6.3150 261° West 502 578 32,000  Level FlightAware ADS-B
Fri 09:16:15 AM 48.2593 -6.4645 261° West 488 562 32,000  Level FlightAware UK
Fri 09:16:28 AM 48.2560 -6.5090 261° West 503 579 32,000  Level FlightAware ADS-B
Fri 09:17:06 AM 48.2420 -6.6380 261° West 503 579 32,000  Level FlightAware ADS-B
Fri 09:17:45 AM 48.2270 -6.7727 261° West 492 566 32,000  Level FlightAware UK
Fri 09:18:15 AM 48.2160 -6.8752 261° West 490 564 32,000  Level FlightAware UK
Fri 09:18:20 AM 48.2170 -6.8700 261° West 499 574 32,000  Level FlightAware ADS-B
Fri 09:18:50 AM 48.2029 -6.9970 261° West 492 566 32,000  Level FlightAware UK
Fri 09:19:16 AM 48.1980 -7.0450 261° West 497 572 32,000  Level FlightAware ADS-B
Fri 09:20:02 AM 48.1763 -7.2407 261° West 490 564 32,000  Level FlightAware UK
Fri 09:20:08 AM 48.1770 -7.2400 261° West 495 570 32,000  Level FlightAware ADS-B
Fri 09:20:44 AM 48.1810 -7.2030 81° East 495 570 32,000  Level FlightAware ADS-B
Fri 09:21:21 AM 48.1680 -7.3090 260° West 495 570 32,000  Level FlightAware ADS-B
Fri 09:21:57 AM 48.1560 -7.4130 260° West 495 570 32,000  Level FlightAware ADS-B
Fri 09:22:31 AM 48.1450 -7.5110 260° West 495 570 32,000 -2,229 Level FlightAware ADS-B
Fri 09:22:32 AM 48.1192 -7.7463 260° West 494 568 30,700 -2,903 Descending FlightAware UK
Fri 09:23:02 AM 48.1075 -7.8478 260° West 1 1 30,500 1,625 Descending FlightAware UK
Fri 09:23:20 AM 48.1280 -7.6510 260° West 495 570 32,000 1,667 Climbing FlightAware ADS-B
Fri 09:23:56 AM 48.1160 -7.7550 260° West 495 570 32,000  Level FlightAware ADS-B
Fri 09:24:37 AM 48.1020 -7.8720 260° West 495 570 32,000  Level FlightAware ADS-B
Fri 09:25:24 AM 48.0860 -8.0070 260° West 495 570 32,000  Level FlightAware ADS-B
Fri 09:26:00 AM 48.0740 -8.1110 260° West 495 570 32,000  Level FlightAware ADS-B
Fri 09:26:36 AM 48.0620 -8.2140 260° West 495 570 32,000  Level FlightAware ADS-B
Fri 09:27:24 AM 48.0450 -8.3510 260° West 495 570 32,000  Level FlightAware ADS-B
Fri 09:27:58 AM 48.0340 -8.4490 261° West 495 570 32,000  Level FlightAware ADS-B
Fri 09:28:46 AM 48.0180 -8.5870 260° West 495 570 32,000  Level FlightAware ADS-B
Fri 09:29:22 AM 48.0050 -8.6900 259° West 495 570 32,000  Level FlightAware ADS-B
Fri 09:30:10 AM 47.9890 -8.8270 260° West 495 570 32,000 12 Level FlightAware ADS-B
Fri 09:32:00 AM 47.8945 -9.1549 247° West  Level FlightAware Approximate
Fri 09:33:00 AM 47.8426 -9.3333 247° West  Level FlightAware Approximate
Fri 09:34:00 AM 47.7904 -9.5113 246° West  Level FlightAware Approximate
Fri 09:35:00 AM 47.7379 -9.6890 246° West  Level FlightAware Approximate
Fri 09:36:00 AM 47.6852 -9.8663 246° West  Level FlightAware Approximate
Fri 09:37:00 AM 47.6322 -10.0432 246° West  Level FlightAware Approximate
Fri 09:38:00 AM 47.5789 -10.2198 246° West  Level FlightAware Approximate
Fri 09:39:00 AM 47.5253 -10.3960 246° West  Level FlightAware Approximate
Fri 09:40:00 AM 47.4715 -10.5719 246° West  Level FlightAware Approximate
Fri 09:41:00 AM 47.4174 -10.7474 246° West  Level FlightAware Approximate
Fri 09:42:00 AM 47.3630 -10.9225 245° Southwest  Level FlightAware Approximate
Fri 09:43:00 AM 47.3084 -11.0973 245° Southwest  Level FlightAware Approximate
Fri 09:44:00 AM 47.2535 -11.2717 245° Southwest  Level FlightAware Approximate
Fri 09:45:00 AM 47.1983 -11.4457 245° Southwest  Level FlightAware Approximate
Fri 09:46:00 AM 47.1429 -11.6194 245° Southwest  Level FlightAware Approximate
Fri 09:47:00 AM 47.0872 -11.7927 245° Southwest  Level FlightAware Approximate
Fri 09:48:00 AM 47.0313 -11.9657 245° Southwest  Level FlightAware Approximate
Fri 09:49:00 AM 46.9751 -12.1383 245° Southwest  Level FlightAware Approximate
Fri 09:50:00 AM 46.9186 -12.3105 244° Southwest  Level FlightAware Approximate
Fri 09:51:00 AM 46.8619 -12.4824 244° Southwest  Level FlightAware Approximate
Fri 09:52:00 AM 46.8049 -12.6539 244° Southwest  Level FlightAware Approximate
Fri 09:53:00 AM 46.7476 -12.8251 244° Southwest  Level FlightAware Approximate
Fri 09:54:00 AM 46.6903 -12.9959 244° Southwest  Level FlightAware Approximate
Fri 09:55:00 AM 46.6334 -13.1670 244° Southwest  Level FlightAware Approximate
Fri 09:56:00 AM 46.5763 -13.3377 244° Southwest  Level FlightAware Approximate
Fri 09:57:00 AM 46.5189 -13.5080 244° Southwest  Level FlightAware Approximate
Fri 09:58:00 AM 46.4613 -13.6779 244° Southwest  Level FlightAware Approximate
Fri 09:59:00 AM 46.4034 -13.8475 244° Southwest  Level FlightAware Approximate
Fri 10:00:00 AM 46.3452 -14.0168 244° Southwest  Level FlightAware Approximate
Fri 10:01:00 AM 46.2868 -14.1856 243° Southwest  Level FlightAware Approximate
Fri 10:02:00 AM 46.2282 -14.3541 243° Southwest  Level FlightAware Approximate
Fri 10:03:00 AM 46.1693 -14.5223 243° Southwest  Level FlightAware Approximate
Fri 10:04:00 AM 46.1102 -14.6901 243° Southwest  Level FlightAware Approximate
Fri 10:05:00 AM 46.0508 -14.8575 243° Southwest  Level FlightAware Approximate
Fri 10:06:00 AM 45.9910 -15.0245 242° Southwest  Level FlightAware Approximate
Fri 10:07:00 AM 45.9301 -15.1904 242° Southwest  Level FlightAware Approximate
Fri 10:08:00 AM 45.8689 -15.3559 242° Southwest  Level FlightAware Approximate
Fri 10:09:00 AM 45.8075 -15.5211 242° Southwest  Level FlightAware Approximate
Fri 10:10:00 AM 45.7458 -15.6859 242° Southwest  Level FlightAware Approximate
Fri 10:11:00 AM 45.6840 -15.8503 242° Southwest  Level FlightAware Approximate
Fri 10:12:00 AM 45.6218 -16.0144 242° Southwest  Level FlightAware Approximate
Fri 10:13:00 AM 45.5595 -16.1781 241° Southwest  Level FlightAware Approximate
Fri 10:14:00 AM 45.4969 -16.3415 241° Southwest  Level FlightAware Approximate
Fri 10:15:00 AM 45.4342 -16.5046 241° Southwest  Level FlightAware Approximate
Fri 10:16:00 AM 45.3719 -16.6659 241° Southwest  Level FlightAware Approximate
Fri 10:17:00 AM 45.3094 -16.8268 241° Southwest  Level FlightAware Approximate
Fri 10:18:00 AM 45.2466 -16.9874 241° Southwest  Level FlightAware Approximate
Fri 10:19:00 AM 45.1836 -17.1476 241° Southwest  Level FlightAware Approximate
Fri 10:20:00 AM 45.1204 -17.3074 241° Southwest  Level FlightAware Approximate
Fri 10:21:00 AM 45.0570 -17.4669 241° Southwest  Level FlightAware Approximate
Fri 10:22:00 AM 44.9933 -17.6261 241° Southwest  Level FlightAware Approximate
Fri 10:23:00 AM 44.9295 -17.7849 240° Southwest  Level FlightAware Approximate
Fri 10:24:00 AM 44.8654 -17.9433 240° Southwest  Level FlightAware Approximate
Fri 10:25:00 AM 44.8011 -18.1014 240° Southwest  Level FlightAware Approximate
Fri 10:26:00 AM 44.7365 -18.2591 240° Southwest  Level FlightAware Approximate
Fri 10:27:00 AM 44.6718 -18.4165 240° Southwest  Level FlightAware Approximate
Fri 10:28:00 AM 44.6068 -18.5735 240° Southwest  Level FlightAware Approximate
Fri 10:29:00 AM 44.5416 -18.7302 240° Southwest  Level FlightAware Approximate
Fri 10:30:00 AM 44.4763 -18.8865 240° Southwest  Level FlightAware Approximate
Fri 10:31:00 AM 44.4107 -19.0425 240° Southwest  Level FlightAware Approximate
Fri 10:32:00 AM 44.3448 -19.1982 239° Southwest  Level FlightAware Approximate
Fri 10:33:00 AM 44.2788 -19.3534 239° Southwest  Level FlightAware Approximate
Fri 10:34:00 AM 44.2126 -19.5084 239° Southwest  Level FlightAware Approximate
Fri 10:35:00 AM 44.1461 -19.6629 239° Southwest  Level FlightAware Approximate
Fri 10:36:00 AM 44.0795 -19.8172 239° Southwest  Level FlightAware Approximate
Fri 10:37:00 AM 44.0126 -19.9711 239° Southwest  Level FlightAware Approximate
Fri 10:38:00 AM 43.9396 -20.1191 235° Southwest  Level FlightAware Approximate
Fri 10:39:00 AM 43.8650 -20.2656 235° Southwest  Level FlightAware Approximate
Fri 10:40:00 AM 43.7901 -20.4117 235° Southwest  Level FlightAware Approximate
Fri 10:41:00 AM 43.7152 -20.5574 235° Southwest  Level FlightAware Approximate
Fri 10:42:00 AM 43.6400 -20.7028 234° Southwest  Level FlightAware Approximate
Fri 10:43:00 AM 43.5646 -20.8478 234° Southwest  Level FlightAware Approximate
Fri 10:44:00 AM 43.4891 -20.9924 234° Southwest  Level FlightAware Approximate
Fri 10:45:00 AM 43.4133 -21.1367 234° Southwest  Level FlightAware Approximate
Fri 10:46:00 AM 43.3374 -21.2806 234° Southwest  Level FlightAware Approximate
Fri 10:47:00 AM 43.2613 -21.4241 234° Southwest  Level FlightAware Approximate
Fri 10:48:00 AM 43.1851 -21.5673 234° Southwest  Level FlightAware Approximate
Fri 10:49:00 AM 43.1086 -21.7102 234° Southwest  Level FlightAware Approximate
Fri 10:50:00 AM 43.0320 -21.8527 234° Southwest  Level FlightAware Approximate
Fri 10:51:00 AM 42.9552 -21.9948 234° Southwest  Level FlightAware Approximate
Fri 10:52:00 AM 42.8783 -22.1366 233° Southwest  Level FlightAware Approximate
Fri 10:53:00 AM 42.8011 -22.2780 233° Southwest  Level FlightAware Approximate
Fri 10:54:00 AM 42.7238 -22.4190 233° Southwest  Level FlightAware Approximate
Fri 10:55:00 AM 42.6463 -22.5597 233° Southwest  Level FlightAware Approximate
Fri 10:56:00 AM 42.5686 -22.7001 233° Southwest  Level FlightAware Approximate
Fri 10:57:00 AM 42.4908 -22.8401 233° Southwest  Level FlightAware Approximate
Fri 10:58:00 AM 42.4128 -22.9798 233° Southwest  Level FlightAware Approximate
Fri 10:59:00 AM 42.3346 -23.1191 233° Southwest  Level FlightAware Approximate
Fri 11:00:00 AM 42.2562 -23.2581 233° Southwest  Level FlightAware Approximate
Fri 11:01:00 AM 42.1777 -23.3967 233° Southwest  Level FlightAware Approximate
Fri 11:02:00 AM 42.0991 -23.5350 233° Southwest  Level FlightAware Approximate
Fri 11:03:00 AM 42.0202 -23.6729 232° Southwest  Level FlightAware Approximate
Fri 11:04:00 AM 41.9412 -23.8105 232° Southwest  Level FlightAware Approximate
Fri 11:05:00 AM 41.8620 -23.9478 232° Southwest  Level FlightAware Approximate
Fri 11:06:00 AM 41.7827 -24.0847 232° Southwest  Level FlightAware Approximate
Fri 11:07:00 AM 41.7032 -24.2213 232° Southwest  Level FlightAware Approximate
Fri 11:08:00 AM 41.6236 -24.3575 232° Southwest  Level FlightAware Approximate
Fri 11:09:00 AM 41.5437 -24.4934 232° Southwest  Level FlightAware Approximate
Fri 11:10:00 AM 41.4637 -24.6290 232° Southwest  Level FlightAware Approximate
Fri 11:11:00 AM 41.3836 -24.7642 232° Southwest  Level FlightAware Approximate
Fri 11:12:00 AM 41.3033 -24.8991 232° Southwest  Level FlightAware Approximate
Fri 11:13:00 AM 41.2229 -25.0337 232° Southwest  Level FlightAware Approximate
Fri 11:14:00 AM 41.1423 -25.1679 231° Southwest  Level FlightAware Approximate
Fri 11:15:00 AM 41.0615 -25.3018 231° Southwest  Level FlightAware Approximate
Fri 11:16:00 AM 40.9806 -25.4354 231° Southwest  Level FlightAware Approximate
Fri 11:17:00 AM 40.8995 -25.5687 231° Southwest  Level FlightAware Approximate
Fri 11:18:00 AM 40.8183 -25.7016 231° Southwest  Level FlightAware Approximate
Fri 11:19:00 AM 40.7369 -25.8342 231° Southwest  Level FlightAware Approximate
Fri 11:20:00 AM 40.6554 -25.9665 231° Southwest  Level FlightAware Approximate
Fri 11:21:00 AM 40.5737 -26.0984 231° Southwest  Level FlightAware Approximate
Fri 11:22:00 AM 40.4919 -26.2300 231° Southwest  Level FlightAware Approximate
Fri 11:23:00 AM 40.4099 -26.3613 231° Southwest  Level FlightAware Approximate
Fri 11:24:00 AM 40.3278 -26.4923 231° Southwest  Level FlightAware Approximate
Fri 11:25:00 AM 40.2455 -26.6230 231° Southwest  Level FlightAware Approximate
Fri 11:26:00 AM 40.1631 -26.7534 230° Southwest  Level FlightAware Approximate
Fri 11:27:00 AM 40.0805 -26.8834 230° Southwest  Level FlightAware Approximate
Fri 11:28:00 AM 39.9978 -27.0131 230° Southwest  Level FlightAware Approximate
Fri 11:29:00 AM 39.9149 -27.1425 230° Southwest  Level FlightAware Approximate
Fri 11:30:00 AM 39.8319 -27.2716 230° Southwest  Level FlightAware Approximate
Fri 11:31:00 AM 39.7488 -27.4004 230° Southwest  Level FlightAware Approximate
Fri 11:31:44 AM 39.2220 -28.2430 230° Southwest 479 551 33,500  Level FlightAware ADS-B
Fri 11:32:00 AM 39.6656 -27.5289 230° Southwest  Level FlightAware Approximate
Fri 11:32:26 AM 39.1660 -28.3270 229° Southwest 480 552 33,500  Level FlightAware ADS-B
Fri 11:33:05 AM 39.1250 -28.3890 230° Southwest 481 554 33,500  Level FlightAware ADS-B
Fri 11:33:53 AM 39.0460 -28.5080 229° Southwest 482 555 33,500  Level FlightAware ADS-B
Fri 11:34:31 AM 38.9790 -28.6080 229° Southwest 484 557 33,500  Level FlightAware ADS-B
Fri 11:35:11 AM 38.9220 -28.6910 229° Southwest 484 557 33,500  Level FlightAware ADS-B
Fri 11:35:48 AM 38.8840 -28.7480 229° Southwest 487 560 33,500 67 Level FlightAware ADS-B
Fri 11:36:41 AM 38.7910 -28.8860 229° Southwest 486 559 33,600 65 Climbing FlightAware ADS-B
Fri 11:37:21 AM 38.7290 -28.9770 229° Southwest 487 560 33,600  Level FlightAware ADS-B
Fri 11:38:01 AM 38.6710 -29.0630 229° Southwest 488 562 33,600  Level FlightAware ADS-B
Fri 11:38:48 AM 38.6000 -29.1660 229° Southwest 488 562 33,600  Level FlightAware ADS-B
Fri 11:39:24 AM 38.5510 -29.2380 229° Southwest 488 562 33,600  Level FlightAware ADS-B
Fri 11:40:13 AM 38.4960 -29.3180 229° Southwest 489 563 33,600  Level FlightAware ADS-B
Fri 11:40:55 AM 38.4140 -29.4370 229° Southwest 491 565 33,600  Level FlightAware ADS-B
Fri 11:41:39 AM 38.3480 -29.5320 228° Southwest 491 565 33,600  Level FlightAware ADS-B
Fri 11:42:24 AM 38.2840 -29.6250 229° Southwest 492 566 33,600  Level FlightAware ADS-B
Fri 11:43:17 AM 38.2060 -29.7390 229° Southwest 492 566 33,600  Level FlightAware ADS-B
Fri 11:43:55 AM 38.1650 -29.7960 228° Southwest 491 565 33,600  Level FlightAware ADS-B
Fri 11:44:34 AM 38.0830 -29.9140 229° Southwest 491 565 33,600 71 Level FlightAware ADS-B
Fri 11:45:19 AM 38.0170 -30.0130 230° Southwest 480 552 33,700 67 Climbing FlightAware ADS-B
Fri 11:46:04 AM 37.9660 -30.1230 240° Southwest 479 551 33,700  Level FlightAware ADS-B
Fri 11:46:59 AM 37.9100 -30.2540 242° Southwest 479 551 33,700  Level FlightAware ADS-B
Fri 11:47:37 AM 37.8820 -30.3180 241° Southwest 479 551 33,700  Level FlightAware ADS-B
Fri 11:48:41 AM 37.8140 -30.4750 241° Southwest 480 552 33,700  Level FlightAware ADS-B
Fri 11:49:34 AM 37.7670 -30.5870 242° Southwest 480 552 33,700  Level FlightAware ADS-B
Fri 11:50:10 AM 37.7350 -30.6630 242° Southwest 480 552 33,700  Level FlightAware ADS-B
Fri 11:50:58 AM 37.6920 -30.7640 242° Southwest 480 552 33,700  Level FlightAware ADS-B
Fri 11:51:35 AM 37.6600 -30.8420 243° Southwest 480 552 33,700  Level FlightAware ADS-B
Fri 11:52:21 AM 37.6190 -30.9390 242° Southwest 480 552 33,700  Level FlightAware ADS-B
Fri 11:52:57 AM 37.5870 -31.0140 242° Southwest 480 552 33,700  Level FlightAware ADS-B
Fri 11:53:45 AM 37.5440 -31.1150 242° Southwest 480 552 33,700  Level FlightAware ADS-B
Fri 11:54:21 AM 37.5120 -31.1910 242° Southwest 480 552 33,700  Level FlightAware ADS-B
Fri 11:55:12 AM 37.4670 -31.2980 242° Southwest 480 552 33,700  Level FlightAware ADS-B
Fri 11:55:48 AM 37.4350 -31.3740 242° Southwest 480 552 33,700  Level FlightAware ADS-B
Fri 11:56:24 AM 37.4030 -31.4490 242° Southwest 480 552 33,700  Level FlightAware ADS-B
Fri 11:57:12 AM 37.3610 -31.5500 242° Southwest 480 552 33,700  Level FlightAware ADS-B
Fri 11:57:48 AM 37.3290 -31.6250 242° Southwest 480 552 33,700  Level FlightAware ADS-B
Fri 11:58:36 AM 37.2860 -31.7260 242° Southwest 480 552 33,700 12 Level FlightAware ADS-B
Fri 12:01:00 PM 37.1190 -32.0542 238° Southwest  Level FlightAware Approximate
Fri 12:02:00 PM 37.0491 -32.1905 237° Southwest  Level FlightAware Approximate
Fri 12:03:00 PM 36.9791 -32.3265 237° Southwest  Level FlightAware Approximate
Fri 12:04:00 PM 36.9090 -32.4624 237° Southwest  Level FlightAware Approximate
Fri 12:05:00 PM 36.8387 -32.5979 237° Southwest  Level FlightAware Approximate
Fri 12:06:00 PM 36.7682 -32.7332 237° Southwest  Level FlightAware Approximate
Fri 12:07:00 PM 36.7001 -32.8714 240° Southwest  Level FlightAware Approximate
Fri 12:08:00 PM 36.6350 -33.0107 240° Southwest  Level FlightAware Approximate
Fri 12:09:00 PM 36.5698 -33.1497 240° Southwest  Level FlightAware Approximate
Fri 12:10:00 PM 36.5044 -33.2884 240° Southwest  Level FlightAware Approximate
Fri 12:11:00 PM 36.4388 -33.4269 240° Southwest  Level FlightAware Approximate
Fri 12:12:00 PM 36.3731 -33.5652 239° Southwest  Level FlightAware Approximate
Fri 12:13:00 PM 36.3072 -33.7033 239° Southwest  Level FlightAware Approximate
Fri 12:14:00 PM 36.2412 -33.8411 239° Southwest  Level FlightAware Approximate
Fri 12:15:00 PM 36.1750 -33.9787 239° Southwest  Level FlightAware Approximate
Fri 12:16:00 PM 36.1087 -34.1160 239° Southwest  Level FlightAware Approximate
Fri 12:17:00 PM 36.0422 -34.2531 239° Southwest  Level FlightAware Approximate
Fri 12:18:00 PM 35.9755 -34.3900 239° Southwest  Level FlightAware Approximate
Fri 12:19:00 PM 35.9087 -34.5267 239° Southwest  Level FlightAware Approximate
Fri 12:20:00 PM 35.8417 -34.6631 239° Southwest  Level FlightAware Approximate
Fri 12:21:00 PM 35.7746 -34.7993 239° Southwest  Level FlightAware Approximate
Fri 12:22:00 PM 35.7074 -34.9353 239° Southwest  Level FlightAware Approximate
Fri 12:23:00 PM 35.6399 -35.0710 239° Southwest  Level FlightAware Approximate
Fri 12:24:00 PM 35.5723 -35.2065 239° Southwest  Level FlightAware Approximate
Fri 12:25:00 PM 35.5046 -35.3418 238° Southwest  Level FlightAware Approximate
Fri 12:26:00 PM 35.4367 -35.4768 238° Southwest  Level FlightAware Approximate
Fri 12:27:00 PM 35.3683 -35.6114 238° Southwest  Level FlightAware Approximate
Fri 12:28:00 PM 35.2996 -35.7455 238° Southwest  Level FlightAware Approximate
Fri 12:29:00 PM 35.2307 -35.8795 238° Southwest  Level FlightAware Approximate
Fri 12:30:00 PM 35.1617 -36.0132 238° Southwest  Level FlightAware Approximate
Fri 12:31:00 PM 35.0925 -36.1467 238° Southwest  Level FlightAware Approximate
Fri 12:32:00 PM 35.0232 -36.2799 238° Southwest  Level FlightAware Approximate
Fri 12:33:00 PM 34.9537 -36.4129 238° Southwest  Level FlightAware Approximate
Fri 12:34:00 PM 34.8841 -36.5458 237° Southwest  Level FlightAware Approximate
Fri 12:35:00 PM 34.8144 -36.6783 237° Southwest  Level FlightAware Approximate
Fri 12:36:00 PM 34.7445 -36.8107 237° Southwest  Level FlightAware Approximate
Fri 12:37:00 PM 34.6744 -36.9428 237° Southwest  Level FlightAware Approximate
Fri 12:38:00 PM 34.6043 -37.0747 237° Southwest  Level FlightAware Approximate
Fri 12:39:00 PM 34.5339 -37.2064 237° Southwest  Level FlightAware Approximate
Fri 12:40:00 PM 34.4635 -37.3379 237° Southwest  Level FlightAware Approximate
Fri 12:41:00 PM 34.3928 -37.4692 237° Southwest  Level FlightAware Approximate
Fri 12:42:00 PM 34.3221 -37.6002 237° Southwest  Level FlightAware Approximate
Fri 12:43:00 PM 34.2512 -37.7310 237° Southwest  Level FlightAware Approximate
Fri 12:44:00 PM 34.1802 -37.8615 237° Southwest  Level FlightAware Approximate
Fri 12:45:00 PM 34.1090 -37.9919 237° Southwest  Level FlightAware Approximate
Fri 12:46:00 PM 34.0377 -38.1221 237° Southwest  Level FlightAware Approximate
Fri 12:47:00 PM 33.9663 -38.2520 236° Southwest  Level FlightAware Approximate
Fri 12:48:00 PM 33.8947 -38.3817 236° Southwest  Level FlightAware Approximate
Fri 12:49:00 PM 33.8230 -38.5112 236° Southwest  Level FlightAware Approximate
Fri 12:50:00 PM 33.7512 -38.6404 236° Southwest  Level FlightAware Approximate
Fri 12:51:00 PM 33.6792 -38.7695 236° Southwest  Level FlightAware Approximate
Fri 12:52:00 PM 33.6071 -38.8983 236° Southwest  Level FlightAware Approximate
Fri 12:53:00 PM 33.5352 -39.0273 237° Southwest  Level FlightAware Approximate
Fri 12:54:00 PM 33.4646 -39.1571 237° Southwest  Level FlightAware Approximate
Fri 12:54:47 PM 33.0000 -40.0000 238° Southwest 488 562 34,400  Level New York Oceanic (ODAPS)
Fri 12:55:00 PM 33.3938 -39.2867 237° Southwest  Level FlightAware Approximate
Fri 12:56:00 PM 33.3230 -39.4161 237° Southwest  Level FlightAware Approximate
Fri 12:57:00 PM 33.2520 -39.5453 237° Southwest  Level FlightAware Approximate
Fri 12:58:00 PM 33.1808 -39.6742 237° Southwest  Level FlightAware Approximate
Fri 12:59:00 PM 33.1095 -39.8030 237° Southwest  Level FlightAware Approximate
Fri 01:00:00 PM 33.0381 -39.9316 236° Southwest  Level FlightAware Approximate
Fri 01:01:00 PM 32.5611 -40.8242 237° Southwest 488 562 34,400  Level FlightAware Transoceanic
Fri 01:02:00 PM 32.4874 -40.9608 237° Southwest 488 562 34,400  Level FlightAware Transoceanic
Fri 01:03:00 PM 32.4136 -41.0972 237° Southwest 488 562 34,400  Level FlightAware Transoceanic
Fri 01:04:00 PM 32.3396 -41.2333 237° Southwest 488 562 34,400  Level FlightAware Transoceanic
Fri 01:05:00 PM 32.2655 -41.3692 237° Southwest 488 562 34,400  Level FlightAware Transoceanic
Fri 01:06:00 PM 32.1912 -41.5049 237° Southwest 488 562 34,400  Level FlightAware Transoceanic
Fri 01:07:00 PM 32.1168 -41.6404 237° Southwest 488 562 34,400  Level FlightAware Transoceanic
Fri 01:08:00 PM 32.0423 -41.7756 237° Southwest 488 562 34,400  Level FlightAware Transoceanic
Fri 01:08:29 PM 31.9833 -41.8667 237° Southwest 480 552 34,400  Level New York Oceanic (ODAPS)
Fri 01:09:00 PM 31.9676 -41.9107 237° Southwest 488 562 34,400  Level FlightAware Transoceanic
Fri 01:10:00 PM 31.8927 -42.0455 237° Southwest 488 562 34,400  Level FlightAware Transoceanic
Fri 01:11:00 PM 31.8178 -42.1801 237° Southwest 488 562 34,400  Level FlightAware Transoceanic
Fri 01:12:00 PM 31.7426 -42.3144 237° Southwest 488 562 34,400  Level FlightAware Transoceanic
Fri 01:13:00 PM 31.6674 -42.4486 237° Southwest 488 562 34,400  Level FlightAware Transoceanic
Fri 01:14:00 PM 31.5449 -42.6519 237° Southwest 480 552 34,400  Level FlightAware Transoceanic
Fri 01:15:00 PM 31.4714 -42.7821 236° Southwest 480 552 34,400  Level FlightAware Transoceanic
Fri 01:16:00 PM 31.3978 -42.9121 236° Southwest 480 552 34,400 64 Level FlightAware Transoceanic
Fri 01:16:34 PM 31.4000 -42.9167 236° Southwest 479 551 34,500  Climbing New York Oceanic (ODAPS)
Fri 01:17:00 PM 31.3240 -43.0418 236° Southwest 480 552 34,400 -70 Descending FlightAware Transoceanic
Fri 01:18:00 PM 31.2500 -43.1713 236° Southwest 480 552 34,400  Level FlightAware Transoceanic
Fri 01:19:00 PM 31.1760 -43.3007 236° Southwest 480 552 34,400  Level FlightAware Transoceanic
Fri 01:20:00 PM 31.1018 -43.4298 236° Southwest 480 552 34,400  Level FlightAware Transoceanic
Fri 01:21:00 PM 31.0275 -43.5588 236° Southwest 480 552 34,400  Level FlightAware Transoceanic
Fri 01:22:00 PM 30.9531 -43.6875 236° Southwest 480 552 34,400 50 Level FlightAware Transoceanic
Fri 01:23:00 PM 30.8804 -43.8201 236° Southwest 479 551 34,500 50 Climbing FlightAware Transoceanic
Fri 01:24:00 PM 30.8057 -43.9483 236° Southwest 479 551 34,500  Level FlightAware Transoceanic
Fri 01:25:00 PM 30.7308 -44.0764 236° Southwest 479 551 34,500  Level FlightAware Transoceanic
Fri 01:26:00 PM 30.6558 -44.2043 236° Southwest 479 551 34,500  Level FlightAware Transoceanic
Fri 01:27:00 PM 30.5807 -44.3319 236° Southwest 479 551 34,500  Level FlightAware Transoceanic
Fri 01:28:00 PM 30.5055 -44.4594 236° Southwest 479 551 34,500 561 Level FlightAware Transoceanic
Fri 01:28:47 PM 30.4667 -44.5167 236° Southwest 486 559 35,500  Climbing New York Oceanic (ODAPS)
Fri 01:29:00 PM 30.4301 -44.5867 235° Southwest 479 551 34,500 -822 Descending FlightAware Transoceanic
Fri 01:30:00 PM 30.3547 -44.7137 235° Southwest 479 551 34,500  Level FlightAware Transoceanic
Fri 01:31:00 PM 30.2791 -44.8406 235° Southwest 479 551 34,500  Level FlightAware Transoceanic
Fri 01:32:00 PM 30.2033 -44.9673 235° Southwest 479 551 34,500  Level FlightAware Transoceanic
Fri 01:33:00 PM 30.1275 -45.0938 235° Southwest 479 551 34,500  Level FlightAware Transoceanic
Fri 01:34:00 PM 30.0515 -45.2200 235° Southwest 479 551 34,500 500 Level FlightAware Transoceanic
Fri 01:35:00 PM 30.0073 -45.2862 235° Southwest 486 559 35,500 500 Climbing FlightAware Transoceanic
Fri 01:36:00 PM 29.9303 -45.4138 235° Southwest 486 559 35,500  Level FlightAware Transoceanic
Fri 01:37:00 PM 29.8532 -45.5411 235° Southwest 486 559 35,500  Level FlightAware Transoceanic
Fri 01:38:00 PM 29.7760 -45.6683 235° Southwest 486 559 35,500  Level FlightAware Transoceanic
Fri 01:39:00 PM 29.6986 -45.7953 235° Southwest 486 559 35,500  Level FlightAware Transoceanic
Fri 01:40:00 PM 29.6211 -45.9221 235° Southwest 486 559 35,500  Level FlightAware Transoceanic
Fri 01:41:00 PM 29.5435 -46.0486 235° Southwest 486 559 35,500  Level FlightAware Transoceanic
Fri 01:42:00 PM 29.4658 -46.1750 235° Southwest 486 559 35,500  Level FlightAware Transoceanic
Fri 01:43:00 PM 29.3880 -46.3012 235° Southwest 486 559 35,500  Level FlightAware Transoceanic
Fri 01:44:00 PM 29.3100 -46.4272 235° Southwest 486 559 35,500  Level FlightAware Transoceanic
Fri 01:45:00 PM 29.2319 -46.5530 235° Southwest 486 559 35,500  Level FlightAware Transoceanic
Fri 01:46:00 PM 29.1537 -46.6786 234° Southwest 486 559 35,500  Level FlightAware Transoceanic
Fri 01:47:00 PM 29.0754 -46.8041 234° Southwest 486 559 35,500  Level FlightAware Transoceanic
Fri 01:48:00 PM 28.9970 -46.9293 234° Southwest 486 559 35,500  Level FlightAware Transoceanic
Fri 01:49:00 PM 28.9184 -47.0543 234° Southwest 486 559 35,500 -571 Level FlightAware Transoceanic
Fri 01:49:03 PM 28.8333 -47.2000 234° Southwest 494 568 34,900  Descending New York Oceanic (ODAPS)
Fri 01:50:00 PM 28.8398 -47.1792 234° Southwest 486 559 35,500 308 Climbing FlightAware Transoceanic
Fri 01:51:00 PM 28.7610 -47.3038 234° Southwest 486 559 35,500  Level FlightAware Transoceanic
Fri 01:52:00 PM 28.6821 -47.4283 234° Southwest 486 559 35,500  Level FlightAware Transoceanic
Fri 01:53:00 PM 28.6031 -47.5526 234° Southwest 486 559 35,500  Level FlightAware Transoceanic
Fri 01:54:00 PM 28.5240 -47.6767 234° Southwest 486 559 35,500 -300 Level FlightAware Transoceanic
Fri 01:55:00 PM 28.3390 -47.9731 234° Southwest 494 568 34,900 -300 Descending FlightAware Transoceanic
Fri 01:56:00 PM 28.2562 -48.1013 234° Southwest 494 568 34,900  Level FlightAware Transoceanic
Fri 01:57:00 PM 28.1733 -48.2292 234° Southwest 494 568 34,900  Level FlightAware Transoceanic
Fri 01:58:00 PM 28.0902 -48.3570 234° Southwest 494 568 34,900  Level FlightAware Transoceanic
Fri 01:59:00 PM 28.0070 -48.4845 234° Southwest 494 568 34,900  Level FlightAware Transoceanic
Fri 02:00:00 PM 27.9237 -48.6119 233° Southwest 494 568 34,900  Level FlightAware Transoceanic
Fri 02:01:00 PM 27.8403 -48.7390 233° Southwest 494 568 34,900  Level FlightAware Transoceanic
Fri 02:02:00 PM 27.7568 -48.8660 233° Southwest 494 568 34,900  Level FlightAware Transoceanic
Fri 02:03:00 PM 27.6732 -48.9928 233° Southwest 494 568 34,900  Level FlightAware Transoceanic
Fri 02:04:00 PM 27.5894 -49.1193 233° Southwest 494 568 34,900  Level FlightAware Transoceanic
Fri 02:05:00 PM 27.5056 -49.2457 233° Southwest 494 568 34,900  Level FlightAware Transoceanic
Fri 02:06:00 PM 27.4216 -49.3719 233° Southwest 494 568 34,900  Level FlightAware Transoceanic
Fri 02:07:00 PM 27.3375 -49.4979 233° Southwest 494 568 34,900  Level FlightAware Transoceanic
Fri 02:08:00 PM 27.2533 -49.6237 233° Southwest 494 568 34,900  Level FlightAware Transoceanic
Fri 02:09:00 PM 27.1690 -49.7493 233° Southwest 494 568 34,900 231 Level FlightAware Transoceanic
Fri 02:09:18 PM 27.2167 -49.6667 234° Southwest 468 539 35,200  Climbing New York Oceanic (ODAPS)
Fri 02:10:00 PM 27.0845 -49.8748 233° Southwest 494 568 34,900 -176 Descending FlightAware Transoceanic
Fri 02:11:00 PM 27.0000 -50.0000 221° Southwest 494 568 34,900  Level FlightAware Transoceanic
Fri 02:12:00 PM 26.9002 -50.0973 221° Southwest 494 568 34,900 261 Level FlightAware Transoceanic
Fri 02:12:09 PM 27.0000 -50.0000 221° Southwest 475 547 35,200  Climbing New York Oceanic (ODAPS)
Fri 02:13:00 PM 26.8003 -50.1944 221° Southwest 494 568 34,900 -162 Descending FlightAware Transoceanic
Fri 02:14:00 PM 26.7003 -50.2914 221° Southwest 494 568 34,900 150 Level FlightAware Transoceanic
Fri 02:15:00 PM 26.7003 -50.2914 221° Southwest 468 539 35,200 150 Climbing FlightAware Transoceanic
Fri 02:16:00 PM 26.6003 -50.3882 221° Southwest 468 539 35,200  Level FlightAware Transoceanic
Fri 02:17:00 PM 26.5002 -50.4848 221° Southwest 468 539 35,200  Level FlightAware Transoceanic
Fri 02:17:17 PM 26.5000 -50.4833 221° Southwest 477 549 35,200  Level New York Oceanic (ODAPS)
Fri 02:18:00 PM 26.4000 -50.5813 221° Southwest 475 547 35,200  Level FlightAware Transoceanic
Fri 02:19:00 PM 26.2998 -50.6775 221° Southwest 475 547 35,200  Level FlightAware Transoceanic
Fri 02:20:00 PM 26.1995 -50.7737 221° Southwest 475 547 35,200  Level FlightAware Transoceanic
Fri 02:21:00 PM 26.0991 -50.8696 221° Southwest 475 547 35,200  Level FlightAware Transoceanic
Fri 02:22:00 PM 25.9987 -50.9654 221° Southwest 475 547 35,200  Level FlightAware Transoceanic
Fri 02:23:00 PM 25.8981 -51.0597 221° Southwest 477 549 35,200  Level FlightAware Transoceanic
Fri 02:24:00 PM 25.7975 -51.1552 220° Southwest 477 549 35,200  Level FlightAware Transoceanic
Fri 02:25:00 PM 25.6969 -51.2505 220° Southwest 477 549 35,200  Level FlightAware Transoceanic
Fri 02:26:00 PM 25.5963 -51.3456 220° Southwest 477 549 35,200  Level FlightAware Transoceanic
Fri 02:27:00 PM 25.4955 -51.4406 220° Southwest 477 549 35,200  Level FlightAware Transoceanic
Fri 02:28:00 PM 25.3947 -51.5355 220° Southwest 477 549 35,200  Level FlightAware Transoceanic
Fri 02:29:00 PM 25.2939 -51.6301 220° Southwest 477 549 35,200 125 Level FlightAware Transoceanic
Fri 02:29:36 PM 25.2833 -51.6500 220° Southwest 471 542 35,400  Climbing New York Oceanic (ODAPS)
Fri 02:30:00 PM 25.1930 -51.7247 220° Southwest 477 549 35,200 -143 Descending FlightAware Transoceanic
Fri 02:31:00 PM 25.0920 -51.8190 220° Southwest 477 549 35,200 148 Level FlightAware Transoceanic
Fri 02:31:21 PM 25.1333 -51.7833 220° Southwest 470 541 35,400  Climbing New York Oceanic (ODAPS)
Fri 02:32:00 PM 24.9910 -51.9132 220° Southwest 477 549 35,200 -121 Descending FlightAware Transoceanic
Fri 02:33:00 PM 24.8899 -52.0073 220° Southwest 477 549 35,200  Level FlightAware Transoceanic
Fri 02:34:00 PM 24.7887 -52.1012 220° Southwest 477 549 35,200  Level FlightAware Transoceanic
Fri 02:35:00 PM 24.6875 -52.1950 220° Southwest 477 549 35,200 100 Level FlightAware Transoceanic
Fri 02:36:00 PM 24.5865 -52.2972 220° Southwest 471 542 35,400 100 Climbing FlightAware Transoceanic
Fri 02:37:00 PM 24.5315 -52.3417 220° Southwest 470 541 35,400  Level FlightAware Transoceanic
Fri 02:38:00 PM 24.4310 -52.4342 220° Southwest 470 541 35,400  Level FlightAware Transoceanic
Fri 02:39:00 PM 24.3305 -52.5266 220° Southwest 470 541 35,400  Level FlightAware Transoceanic
Fri 02:40:00 PM 24.2299 -52.6188 220° Southwest 470 541 35,400  Level FlightAware Transoceanic
Fri 02:41:00 PM 24.1292 -52.7109 220° Southwest 470 541 35,400  Level FlightAware Transoceanic
Fri 02:42:00 PM 24.0285 -52.8029 220° Southwest 470 541 35,400  Level FlightAware Transoceanic
Fri 02:43:00 PM 23.9277 -52.8947 220° Southwest 470 541 35,400  Level FlightAware Transoceanic
Fri 02:44:00 PM 23.8269 -52.9864 220° Southwest 470 541 35,400  Level FlightAware Transoceanic
Fri 02:45:00 PM 23.7260 -53.0779 220° Southwest 470 541 35,400  Level FlightAware Transoceanic
Fri 02:46:00 PM 23.6251 -53.1693 220° Southwest 470 541 35,400  Level FlightAware Transoceanic
Fri 02:47:00 PM 23.5241 -53.2605 220° Southwest 470 541 35,400  Level FlightAware Transoceanic
Fri 02:48:00 PM 23.4230 -53.3516 220° Southwest 470 541 35,400  Level FlightAware Transoceanic
Fri 02:49:00 PM 23.3219 -53.4425 220° Southwest 470 541 35,400 107 Level FlightAware Transoceanic
Fri 02:49:52 PM 23.2833 -53.4667 220° Southwest 475 547 35,600  Climbing New York Oceanic (ODAPS)
Fri 02:50:00 PM 23.2208 -53.5334 219° Southwest 470 541 35,400 -176 Descending FlightAware Transoceanic
Fri 02:51:00 PM 23.1196 -53.6240 219° Southwest 470 541 35,400  Level FlightAware Transoceanic
Fri 02:52:00 PM 23.0183 -53.7146 219° Southwest 470 541 35,400  Level FlightAware Transoceanic
Fri 02:53:00 PM 22.9170 -53.8050 219° Southwest 470 541 35,400  Level FlightAware Transoceanic
Fri 02:54:00 PM 22.8157 -53.8953 219° Southwest 470 541 35,400 185 Level FlightAware Transoceanic
Fri 02:54:05 PM 22.8833 -53.8333 219° Southwest 475 547 35,600  Climbing New York Oceanic (ODAPS)
Fri 02:55:00 PM 22.7142 -53.9854 219° Southwest 470 541 35,400  Descending FlightAware Transoceanic
Fri 02:56:00 PM 22.6682 -54.0171 219° Southwest 475 547 35,600 100 Climbing FlightAware Transoceanic
Fri 02:57:00 PM 22.5655 -54.1083 219° Southwest 475 547 35,600  Level FlightAware Transoceanic
Fri 02:58:00 PM 22.4627 -54.1994 219° Southwest 475 547 35,600  Level FlightAware Transoceanic
Fri 02:59:00 PM 22.3599 -54.2904 219° Southwest 475 547 35,600 72 Level FlightAware Transoceanic
Fri 02:59:23 PM 22.3667 -54.2833 219° Southwest 476 548 35,700  Climbing New York Oceanic (ODAPS)
Fri 03:00:00 PM 22.2657 -54.3806 219° Southwest 475 547 35,600 -62 Descending FlightAware Transoceanic
Fri 03:01:00 PM 22.1626 -54.4713 219° Southwest 475 547 35,600  Level FlightAware Transoceanic
Fri 03:02:00 PM 22.0594 -54.5619 219° Southwest 475 547 35,600  Level FlightAware Transoceanic
Fri 03:03:00 PM 21.9562 -54.6524 219° Southwest 475 547 35,600  Level FlightAware Transoceanic
Fri 03:04:00 PM 21.8529 -54.7427 219° Southwest 475 547 35,600 50 Level FlightAware Transoceanic
Fri 03:05:00 PM 21.7478 -54.8275 219° Southwest 476 548 35,700 220 Climbing FlightAware Transoceanic
Fri 03:05:49 PM 21.6667 -54.9000 219° Southwest 477 549 36,000  Climbing New York Oceanic (ODAPS)
Fri 03:06:00 PM 21.6445 -54.9177 219° Southwest 476 548 35,700 -254 Descending FlightAware Transoceanic
Fri 03:07:00 PM 21.5411 -55.0078 219° Southwest 476 548 35,700  Level FlightAware Transoceanic
Fri 03:08:00 PM 21.4377 -55.0978 219° Southwest 476 548 35,700  Level FlightAware Transoceanic
Fri 03:09:00 PM 21.3342 -55.1876 219° Southwest 476 548 35,700  Level FlightAware Transoceanic
Fri 03:10:00 PM 21.2307 -55.2773 219° Southwest 476 548 35,700 269 Level FlightAware Transoceanic
Fri 03:10:07 PM 21.2167 -55.3000 219° Southwest 478 550 36,000  Climbing New York Oceanic (ODAPS)
Fri 03:11:00 PM 21.1272 -55.3669 219° Southwest 476 548 35,700  Descending FlightAware Transoceanic
Fri 03:12:00 PM 21.0420 -55.4419 219° Southwest 477 549 36,000 150 Climbing FlightAware Transoceanic
Fri 03:13:00 PM 20.9377 -55.5317 219° Southwest 477 549 36,000  Level FlightAware Transoceanic
Fri 03:14:00 PM 20.8334 -55.6215 219° Southwest 477 549 36,000  Level FlightAware Transoceanic
Fri 03:15:00 PM 20.7290 -55.7111 219° Southwest 477 549 36,000  Level FlightAware Transoceanic
Fri 03:16:00 PM 20.5973 -55.8312 219° Southwest 478 550 36,000  Level FlightAware Transoceanic
Fri 03:17:00 PM 20.4939 -55.9193 219° Southwest 478 550 36,000  Level FlightAware Transoceanic
Fri 03:18:00 PM 20.3905 -56.0073 219° Southwest 478 550 36,000  Level FlightAware Transoceanic
Fri 03:19:00 PM 20.2870 -56.0952 219° Southwest 478 550 36,000  Level FlightAware Transoceanic
Fri 03:20:00 PM 20.1835 -56.1829 218° Southwest 478 550 36,000  Level FlightAware Transoceanic
Fri 03:21:00 PM 20.0799 -56.2706 218° Southwest 478 550 36,000  Level FlightAware Transoceanic
Fri 03:22:00 PM 19.9763 -56.3581 218° Southwest 478 550 36,000  Level FlightAware Transoceanic
Fri 03:23:00 PM 19.8727 -56.4455 218° Southwest 478 550 36,000  Level FlightAware Transoceanic
Fri 03:24:00 PM 19.7690 -56.5328 218° Southwest 478 550 36,000  Level FlightAware Transoceanic
Fri 03:25:00 PM 19.6652 -56.6200 218° Southwest 478 550 36,000  Level FlightAware Transoceanic
Fri 03:26:00 PM 19.5615 -56.7070 218° Southwest 478 550 36,000  Level FlightAware Transoceanic
Fri 03:27:00 PM 19.4576 -56.7940 218° Southwest 478 550 36,000  Level FlightAware Transoceanic
Fri 03:28:00 PM 19.3538 -56.8808 218° Southwest 478 550 36,000  Level FlightAware Transoceanic
Fri 03:29:00 PM 19.2499 -56.9676 218° Southwest 478 550 36,000  Level FlightAware Transoceanic
Fri 03:30:00 PM 19.1460 -57.0542 218° Southwest 478 550 36,000  Level FlightAware Transoceanic
Fri 03:30:23 PM 19.0833 -57.1000 218° Southwest 484 557 36,000  Level New York Oceanic (ODAPS)
Fri 03:31:00 PM 19.0420 -57.1407 218° Southwest 478 550 36,000  Level FlightAware Transoceanic
Fri 03:32:00 PM 18.9380 -57.2271 218° Southwest 478 550 36,000  Level FlightAware Transoceanic
Fri 03:33:00 PM 18.8339 -57.3134 218° Southwest 478 550 36,000  Level FlightAware Transoceanic
Fri 03:34:00 PM 18.7298 -57.3996 218° Southwest 478 550 36,000  Level FlightAware Transoceanic
Fri 03:35:00 PM 18.6257 -57.4857 218° Southwest 478 550 36,000  Level FlightAware Transoceanic
Fri 03:36:00 PM 18.4930 -57.5923 218° Southwest 484 557 36,000  Level FlightAware Transoceanic
Fri 03:37:00 PM 18.3944 -57.6740 218° Southwest 484 557 36,000  Level FlightAware Transoceanic
Fri 03:38:00 PM 18.2959 -57.7557 218° Southwest 484 557 36,000  Level FlightAware Transoceanic
Fri 03:39:00 PM 18.1973 -57.8372 218° Southwest 484 557 36,000  Level FlightAware Transoceanic
Fri 03:40:00 PM 18.0987 -57.9187 218° Southwest 484 557 36,000  Level FlightAware Transoceanic
Fri 03:41:00 PM 18.0000 -58.0000 221° Southwest 484 557 36,000  Level FlightAware Transoceanic
Fri 03:42:00 PM 17.8983 -58.0924 221° Southwest 484 557 36,000  Level FlightAware Transoceanic
Fri 03:43:00 PM 17.7965 -58.1847 221° Southwest 484 557 36,000  Level FlightAware Transoceanic
Fri 03:44:00 PM 17.6947 -58.2769 221° Southwest 484 557 36,000  Level FlightAware Transoceanic
Fri 03:45:00 PM 17.5929 -58.3690 221° Southwest 484 557 36,000  Level FlightAware Transoceanic
Fri 03:46:00 PM 17.4910 -58.4610 221° Southwest 484 557 36,000  Level FlightAware Transoceanic
Fri 03:47:00 PM 17.3890 -58.5529 221° Southwest 484 557 36,000  Level FlightAware Transoceanic
Fri 03:48:00 PM 17.2871 -58.6447 221° Southwest 484 557 36,000  Level FlightAware Transoceanic
Fri 03:49:00 PM 17.1850 -58.7364 221° Southwest 484 557 36,000  Level FlightAware Transoceanic
Fri 03:49:01 PM 17.2120 -58.7350 221° Southwest 477 549 36,000  Level FlightAware ADS-B
Fri 03:49:47 PM 17.1090 -58.8270 220° Southwest 479 551 36,000  Level FlightAware ADS-B
Fri 03:50:26 PM 17.0390 -58.8900 221° Southwest 479 551 36,000  Level FlightAware ADS-B
Fri 03:51:13 PM 16.9620 -58.9590 221° Southwest 480 552 36,000  Level FlightAware ADS-B
Fri 03:52:06 PM 16.8740 -59.0370 220° Southwest 481 554 36,000  Level FlightAware ADS-B
Fri 03:52:46 PM 16.8180 -59.0870 221° Southwest 481 554 36,000  Level FlightAware ADS-B
Fri 03:53:30 PM 16.7520 -59.1470 221° Southwest 482 555 36,000  Level FlightAware ADS-B
Fri 03:54:09 PM 16.6730 -59.2170 220° Southwest 483 556 36,000  Level FlightAware ADS-B
Fri 03:55:02 PM 16.5740 -59.3050 220° Southwest 482 555 36,000  Level FlightAware ADS-B
Fri 03:55:40 PM 16.5130 -59.3600 221° Southwest 483 556 36,000  Level FlightAware ADS-B
Fri 03:56:24 PM 16.4330 -59.4300 220° Southwest 482 555 36,000  Level FlightAware ADS-B
Fri 03:57:07 PM 16.3680 -59.4880 221° Southwest 483 556 36,000  Level FlightAware ADS-B
Fri 03:57:47 PM 16.3050 -59.5410 219° Southwest 483 556 36,000  Level FlightAware ADS-B
Fri 03:58:25 PM 16.2440 -59.5940 220° Southwest 482 555 36,000  Level FlightAware ADS-B
Fri 03:59:04 PM 16.1840 -59.6450 219° Southwest 482 555 36,000  Level FlightAware ADS-B
Fri 03:59:52 PM 16.0770 -59.7360 219° Southwest 483 556 36,000  Level FlightAware ADS-B
Fri 04:00:22 PM 16.0250 -59.7800 219° Southwest 483 556 36,000  Level FlightAware ADS-B
Fri 04:01:00 PM 15.9670 -59.8300 220° Southwest 483 556 36,000 -1,125 Level FlightAware ADS-B
Fri 04:01:42 PM 15.8910 -59.8940 219° Southwest 481 554 34,500 -2,961 Descending FlightAware ADS-B
Fri 04:02:17 PM 15.8200 -59.9550 220° Southwest 491 565 32,200 -2,649 Descending FlightAware ADS-B
Fri 04:02:59 PM 15.7820 -59.9870 219° Southwest 493 567 31,100 -2,233 Descending FlightAware ADS-B
Fri 04:03:43 PM 15.6930 -60.0630 219° Southwest 484 557 29,000 -2,886 Descending FlightAware ADS-B
Fri 04:04:18 PM 15.6150 -60.1290 219° Southwest 477 549 27,300 -2,582 Descending FlightAware ADS-B
Fri 04:05:02 PM 15.5400 -60.1950 220° Southwest 469 540 25,600 -2,211 Descending FlightAware ADS-B
Fri 04:05:34 PM 15.4910 -60.2390 221° Southwest 465 535 24,500 -2,222 Descending FlightAware ADS-B
Fri 04:06:23 PM 15.4070 -60.3120 220° Southwest 458 527 22,600 -2,114 Descending FlightAware ADS-B
Fri 04:07:02 PM 15.3570 -60.3560 220° Southwest 452 520 21,400 -1,975 Descending FlightAware ADS-B
Fri 04:07:42 PM 15.2940 -60.4110 220° Southwest 445 512 20,000 -2,207 Descending FlightAware ADS-B
Fri 04:08:29 PM 15.2100 -60.4840 220° Southwest 434 499 18,200 -2,320 Descending FlightAware ADS-B
Fri 04:08:57 PM 15.1640 -60.5240 220° Southwest 430 495 17,100 -2,137 Descending FlightAware ADS-B
Fri 04:09:42 PM 15.0990 -60.5810 220° Southwest 422 486 15,600 -1,888 Descending FlightAware ADS-B
Fri 04:10:26 PM 15.0390 -60.6340 220° Southwest 416 479 14,300 -1,979 Descending FlightAware ADS-B
Fri 04:11:16 PM 14.9580 -60.7040 220° Southwest 409 471 12,500 -1,871 Descending FlightAware ADS-B
Fri 04:11:59 PM 14.9100 -60.7460 220° Southwest 405 466 11,400 -1,325 Descending FlightAware ADS-B
Fri 04:12:33 PM 14.8660 -60.7840 220° Southwest 390 449 10,800 -848 Descending FlightAware ADS-B
Fri 04:13:38 PM 14.7750 -60.8630 220° Southwest 349 402 10,000 -732 Descending FlightAware ADS-B
Fri 04:13:55 PM 14.7500 -60.8840 219° Southwest 339 390 9,800 -933 Descending FlightAware ADS-B
Fri 04:14:23 PM 14.7110 -60.9180 220° Southwest 328 377 9,300 -1,138 Descending FlightAware ADS-B
Fri 04:14:53 PM 14.6790 -60.9460 220° Southwest 325 374 8,700 -1,294 Descending FlightAware ADS-B
Fri 04:15:14 PM 14.6510 -60.9710 221° Southwest 320 368 8,200 -1,000 Descending FlightAware ADS-B
Fri 04:15:29 PM 14.6410 -60.9790 218° Southwest 318 366 8,100 -766 Descending FlightAware ADS-B
Fri 04:16:01 PM 14.6160 -61.0010 220° Southwest 316 364 7,600 -1,083 Descending FlightAware ADS-B
Fri 04:16:41 PM 14.5770 -61.0470 229° Southwest 320 368 6,800 -727 Descending FlightAware ADS-B
Fri 04:17:07 PM 14.5580 -61.0740 234° Southwest 320 368 6,800  Level FlightAware ADS-B
Fri 04:19:00 PM 14.5667 -61.0000 136° Southeast  Level FlightAware Approximate
Fri 04:20:00 PM 14.5910 -61.0032 136° Southeast  Level Estimated
Fri 04:21:00 PM 14.5910 -61.0032 136° Southeast  Level Estimated
Fri 04:22:00 PM 14.5910 -61.0032 136° Southeast  Level Estimated
Fri 04:23:00 PM 14.5910 -61.0032 136° Southeast  Level Estimated
Fri 04:24:00 PM 14.5910 -61.0032 136° Southeast  Level Estimated
Fri 04:25:00 PM 14.5910 -61.0032 136° Southeast  Level Estimated
Fri 04:26:00 PM 14.5910 -61.0032 136° Southeast  Level Estimated
Fri 04:27:00 PM 14.5910 -61.0032 136° Southeast  Level Estimated
Fri 04:28:00 PM 14.5910 -61.0032 136° Southeast  Level Estimated
Fri 04:29:00 PM 14.5910 -61.0032 136° Southeast  Level Estimated
Fri 04:30:00 PM 14.5910 -61.0032 136° Southeast  Level Estimated
Fri 04:31:00 PM 14.5910 -61.0032 136° Southeast  Level Estimated
Fri 04:32:00 PM 14.5910 -61.0032 136° Southeast  Level Estimated
Fri 04:33:00 PM 14.5910 -61.0032 136° Southeast  Level Estimated

Login

Don't have an account? Register now (free) for customized features, flight alerts, and more!